Time;durP1;ratioP1;P1;durP2;ratioP2;P2;SDS_P1;SDS_P2;PMS_P1;PMS_P2;Temp;Humidity;BMP_temperature;BMP_pressure;BME280_temperature;BME280_humidity;BME280_pressure;Samples;Min_cycle;Max_cycle;Signal;HPM_P1;HPM_P2
2022/01/20 00:03:20;;;;;;;17.23;4.20;;;5.10;99.90;;;;;;5031123;28;20025;-61
2022/01/20 00:09:06;;;;;;;22.38;5.30;;;5.20;99.90;;;;;;5031036;28;20514;-61
2022/01/20 00:27:52;;;;;;;30.77;4.78;;;4.90;99.90;;;;;;5031160;28;20718;-60
2022/01/20 00:33:02;;;;;;;25.75;4.68;;;4.80;99.90;;;;;;5031540;28;20396;-60
2022/01/20 00:37:14;;;;;;;27.83;4.35;;;4.70;99.90;;;;;;5031271;28;20479;-60
2022/01/20 00:38:13;;;;;;;34.92;5.20;;;4.60;99.90;;;;;;5031242;28;20079;-60
2022/01/20 00:40:39;;;;;;;30.10;5.03;;;4.60;99.90;;;;;;5030863;28;20029;-60
2022/01/20 00:43:05;;;;;;;26.83;4.65;;;4.50;99.90;;;;;;5031321;28;20458;-60
2022/01/20 00:45:31;;;;;;;27.05;4.50;;;4.50;99.90;;;;;;5030250;28;20061;-60
2022/01/20 00:47:57;;;;;;;31.38;4.68;;;4.40;99.90;;;;;;5031441;28;20052;-60
2022/01/20 00:50:24;;;;;;;29.58;4.63;;;4.40;99.90;;;;;;5031009;28;20086;-60
2022/01/20 00:52:50;;;;;;;26.90;4.95;;;4.50;99.90;;;;;;5030915;28;20037;-60
2022/01/20 00:55:16;;;;;;;34.47;4.60;;;4.40;99.90;;;;;;5030477;28;20025;-60
2022/01/20 00:57:42;;;;;;;30.17;4.50;;;4.40;99.90;;;;;;5030768;28;20103;-60
2022/01/20 01:00:10;;;;;;;36.95;4.45;;;4.50;99.90;;;;;;5030742;28;20432;-60
2022/01/20 01:02:35;;;;;;;27.98;4.22;;;4.50;99.90;;;;;;5030245;28;20028;-60
2022/01/20 01:05:04;;;;;;;23.70;4.32;;;4.50;99.90;;;;;;5030965;28;20025;-60
2022/01/20 01:07:51;;;;;;;18.35;3.70;;;4.50;99.90;;;;;;5030944;28;20027;-60
2022/01/20 01:10:26;;;;;;;30.42;3.55;;;4.60;99.90;;;;;;5030466;28;20022;-59
2022/01/20 01:12:58;;;;;;;25.85;3.40;;;4.70;99.90;;;;;;5031088;28;20017;-61
2022/01/20 01:15:30;;;;;;;25.10;4.18;;;4.80;99.90;;;;;;5030784;28;20049;-60
2022/01/20 01:23:36;;;;;;;22.08;4.30;;;4.90;99.90;;;;;;5030559;28;20068;-60
2022/01/20 01:26:08;;;;;;;20.10;3.85;;;5.00;99.90;;;;;;5030238;28;20034;-61
2022/01/20 01:28:34;;;;;;;19.02;3.47;;;4.90;99.90;;;;;;5028833;28;20096;-61
2022/01/20 01:33:58;;;;;;;14.02;2.45;;;4.80;99.90;;;;;;5035084;28;20043;-63
2022/01/20 01:36:27;;;;;;;20.17;2.72;;;4.80;99.90;;;;;;5034945;28;20026;-63
2022/01/20 01:38:52;;;;;;;15.20;1.92;;;4.80;99.90;;;;;;5034667;28;20390;-63
2022/01/20 01:41:29;;;;;;;13.70;2.42;;;4.80;99.90;;;;;;5034610;28;20064;-63
2022/01/20 01:43:56;;;;;;;12.15;1.90;;;4.80;99.90;;;;;;5033467;28;20021;-63
2022/01/20 01:46:23;;;;;;;16.88;2.38;;;4.80;99.90;;;;;;5034428;28;20018;-63
2022/01/20 01:48:49;;;;;;;6.97;1.67;;;4.80;99.90;;;;;;5032265;28;20475;-63
2022/01/20 01:51:14;;;;;;;13.32;2.03;;;4.80;99.90;;;;;;5034451;28;20394;-63
2022/01/20 01:53:40;;;;;;;14.77;1.67;;;4.80;99.90;;;;;;5032976;28;20399;-62
2022/01/20 01:56:07;;;;;;;8.40;1.98;;;4.90;99.90;;;;;;5032888;28;20039;-61
2022/01/20 01:58:33;;;;;;;12.13;1.90;;;4.90;99.90;;;;;;5034040;28;20096;-62
2022/01/20 02:00:59;;;;;;;13.60;1.85;;;4.90;99.90;;;;;;5034430;28;20600;-61
2022/01/20 02:03:25;;;;;;;11.00;1.90;;;5.00;99.90;;;;;;5034237;28;20038;-61
2022/01/20 02:08:49;;;;;;;8.43;1.30;;;5.00;99.90;;;;;;5034863;28;20040;-60
2022/01/20 02:19:28;;;;;;;13.68;1.73;;;4.80;99.90;;;;;;5033533;28;20084;-60
2022/01/20 02:21:56;;;;;;;8.75;1.75;;;4.70;99.90;;;;;;5032149;28;20478;-60
2022/01/20 02:24:22;;;;;;;12.70;2.05;;;4.70;99.90;;;;;;5034203;28;20391;-60
2022/01/20 02:26:49;;;;;;;7.30;1.45;;;4.60;99.90;;;;;;5033374;28;20021;-61
2022/01/20 02:29:15;;;;;;;9.55;1.50;;;4.60;99.90;;;;;;5031763;28;20049;-60
2022/01/20 02:31:41;;;;;;;6.65;1.85;;;4.50;99.90;;;;;;5032345;28;20017;-61
2022/01/20 02:34:11;;;;;;;8.55;2.13;;;4.50;99.90;;;;;;5032058;28;20026;-60
2022/01/20 02:36:40;;;;;;;13.90;2.53;;;4.50;99.90;;;;;;5033157;28;20104;-61
2022/01/20 02:39:22;;;;;;;13.52;2.13;;;4.40;99.90;;;;;;5033417;28;20482;-60
2022/01/20 02:47:16;;;;;;;11.25;2.20;;;4.20;99.90;;;;;;5033841;28;20072;-61
2022/01/20 02:49:41;;;;;;;20.90;2.72;;;4.20;99.90;;;;;;5032695;28;20029;-61
2022/01/20 02:52:07;;;;;;;13.07;2.15;;;4.10;99.90;;;;;;5031778;28;20030;-61
2022/01/20 02:54:34;;;;;;;20.77;2.65;;;4.10;99.90;;;;;;5033102;28;20057;-61
2022/01/20 02:57:01;;;;;;;19.63;3.03;;;4.10;99.90;;;;;;5032537;28;20021;-61
2022/01/20 02:59:27;;;;;;;17.45;2.75;;;4.10;99.90;;;;;;5032930;28;20029;-61
2022/01/20 03:01:53;;;;;;;17.95;3.42;;;4.10;99.90;;;;;;5032532;28;20075;-61
2022/01/20 03:04:23;;;;;;;18.50;3.35;;;4.10;99.90;;;;;;5032981;28;20426;-61
2022/01/20 03:06:49;;;;;;;15.35;2.90;;;4.20;99.90;;;;;;5032721;28;20026;-61
2022/01/20 03:09:14;;;;;;;18.15;4.28;;;4.20;99.90;;;;;;5032496;28;20067;-61
2022/01/20 03:11:40;;;;;;;23.50;4.00;;;4.30;99.90;;;;;;5032960;28;20486;-61
2022/01/20 03:14:06;;;;;;;15.98;3.13;;;4.40;99.90;;;;;;5032595;28;20022;-61
2022/01/20 03:16:32;;;;;;;18.70;3.72;;;4.40;99.90;;;;;;5033150;28;20525;-61
2022/01/20 03:18:57;;;;;;;17.42;3.70;;;4.40;99.90;;;;;;5031051;28;20079;-60
2022/01/20 03:21:23;;;;;;;13.63;3.17;;;4.40;99.90;;;;;;5032349;28;20032;-61
2022/01/20 03:23:49;;;;;;;19.25;3.85;;;4.40;99.90;;;;;;5032262;28;20029;-60
2022/01/20 03:26:14;;;;;;;17.02;3.60;;;4.40;99.90;;;;;;5032260;28;20024;-62
2022/01/20 03:28:40;;;;;;;16.77;3.78;;;4.50;99.90;;;;;;5030800;28;20053;-62
2022/01/20 03:31:06;;;;;;;16.92;3.05;;;4.60;99.90;;;;;;5032309;28;20028;-63
2022/01/20 03:33:31;;;;;;;19.30;3.22;;;4.60;99.90;;;;;;5033005;28;20703;-63
2022/01/20 03:35:57;;;;;;;18.50;3.13;;;4.70;99.90;;;;;;5031260;28;20022;-63
2022/01/20 03:38:23;;;;;;;19.90;2.97;;;4.70;99.90;;;;;;5032725;28;20026;-63
2022/01/20 03:40:50;;;;;;;16.30;3.13;;;4.70;99.90;;;;;;5031078;28;20026;-62
2022/01/20 03:43:16;;;;;;;22.40;4.50;;;4.70;99.90;;;;;;5032491;28;20071;-63
2022/01/20 03:45:46;;;;;;;18.52;3.63;;;4.70;99.90;;;;;;5032037;28;20100;-62
2022/01/20 03:48:12;;;;;;;20.83;3.35;;;4.70;99.90;;;;;;5031740;28;20018;-62
2022/01/20 03:53:23;;;;;;;17.45;2.45;;;4.70;99.90;;;;;;5031858;28;20083;-61
2022/01/20 03:55:49;;;;;;;12.82;2.50;;;4.60;99.90;;;;;;5031533;28;20056;-63
2022/01/20 03:58:15;;;;;;;15.75;3.15;;;4.70;99.90;;;;;;5029943;28;20561;-61
2022/01/20 04:00:41;;;;;;;13.45;3.22;;;4.70;99.90;;;;;;5031718;28;20024;-60
2022/01/20 04:03:06;;;;;;;21.77;3.22;;;4.70;99.90;;;;;;5031486;28;20018;-60
2022/01/20 04:05:32;;;;;;;13.95;4.05;;;4.70;99.90;;;;;;5031395;28;20049;-60
2022/01/20 04:07:58;;;;;;;19.67;3.42;;;4.80;99.90;;;;;;5031118;28;20049;-60
2022/01/20 04:10:23;;;;;;;20.52;3.97;;;4.90;99.90;;;;;;5030911;28;20022;-61
2022/01/20 04:12:49;;;;;;;10.20;3.05;;;4.90;99.90;;;;;;5030756;28;20390;-60
2022/01/20 04:15:17;;;;;;;12.85;3.35;;;4.90;99.90;;;;;;5030777;28;20025;-60
2022/01/20 04:17:50;;;;;;;15.48;2.97;;;4.90;99.90;;;;;;5030887;28;20033;-60
2022/01/20 04:20:16;;;;;;;17.70;2.67;;;4.90;99.90;;;;;;5031120;28;20447;-60
2022/01/20 04:22:41;;;;;;;18.52;3.40;;;4.80;99.90;;;;;;5030810;28;20108;-60
2022/01/20 04:25:07;;;;;;;14.60;3.42;;;4.80;99.90;;;;;;5029939;28;20113;-60
2022/01/20 04:27:33;;;;;;;12.95;3.30;;;4.70;99.90;;;;;;5031175;28;20518;-60
2022/01/20 04:29:59;;;;;;;17.17;3.85;;;4.70;99.90;;;;;;5030119;28;20036;-61
2022/01/20 04:32:24;;;;;;;18.98;3.38;;;4.70;99.90;;;;;;5030144;28;20030;-60
2022/01/20 04:34:51;;;;;;;15.30;3.53;;;4.70;99.90;;;;;;5031198;28;20071;-61
2022/01/20 04:37:17;;;;;;;17.88;4.38;;;4.70;99.90;;;;;;5031194;28;20028;-60
2022/01/20 04:39:48;;;;;;;12.82;3.85;;;4.60;99.90;;;;;;5029984;28;20398;-60
2022/01/20 04:42:13;;;;;;;12.77;3.75;;;4.70;99.90;;;;;;5031359;28;20025;-60
2022/01/20 04:44:49;;;;;;;18.50;3.95;;;4.60;99.90;;;;;;5031327;28;20033;-60
2022/01/20 04:57:55;;;;;;;12.05;3.15;;;4.60;99.90;;;;;;5031515;28;20044;-60
2022/01/20 05:00:21;;;;;;;13.73;3.30;;;4.70;99.90;;;;;;5031145;28;20029;-60
2022/01/20 05:02:47;;;;;;;17.17;3.63;;;4.60;99.90;;;;;;5031066;28;20053;-60
2022/01/20 05:05:12;;;;;;;14.00;3.17;;;4.70;99.90;;;;;;5031875;28;20075;-60
2022/01/20 05:07:38;;;;;;;13.55;3.97;;;4.60;99.90;;;;;;5035174;28;20056;-60
2022/01/20 05:10:07;;;;;;;13.40;3.10;;;4.70;99.90;;;;;;5033704;28;20025;-60
2022/01/20 05:15:18;;;;;;;13.98;3.13;;;4.80;99.90;;;;;;5035084;28;20056;-61
2022/01/20 05:17:44;;;;;;;14.88;2.38;;;4.80;99.90;;;;;;5035869;28;20026;-61
2022/01/20 05:20:13;;;;;;;13.25;2.58;;;4.70;99.90;;;;;;5035469;28;20367;-61
2022/01/20 05:22:38;;;;;;;14.75;2.58;;;4.80;99.90;;;;;;5035255;28;20052;-62
2022/01/20 05:25:05;;;;;;;17.65;3.05;;;4.70;99.90;;;;;;5035206;28;20124;-61
2022/01/20 05:27:31;;;;;;;21.02;2.90;;;4.80;99.90;;;;;;5033586;28;20041;-64
2022/01/20 05:29:57;;;;;;;20.65;3.08;;;4.70;99.90;;;;;;5035095;28;20033;-64
2022/01/20 05:32:23;;;;;;;21.35;2.90;;;4.80;99.90;;;;;;5033114;28;20029;-64
2022/01/20 05:34:49;;;;;;;18.25;3.33;;;4.70;99.90;;;;;;5034097;28;20030;-63
2022/01/20 05:37:14;;;;;;;23.00;3.42;;;4.70;99.90;;;;;;5032760;28;20422;-62
2022/01/20 05:39:41;;;;;;;15.45;3.00;;;4.70;99.90;;;;;;5032396;28;20022;-62
2022/01/20 05:42:07;;;;;;;17.75;3.05;;;4.80;99.90;;;;;;5032572;28;20021;-61
2022/01/20 05:44:33;;;;;;;18.90;4.00;;;4.70;99.90;;;;;;5033075;28;20037;-62
2022/01/20 05:46:59;;;;;;;23.77;3.83;;;4.80;99.90;;;;;;5034412;28;20391;-62
2022/01/20 05:49:24;;;;;;;18.88;3.53;;;4.80;99.90;;;;;;5034284;28;20084;-62
2022/01/20 05:51:52;;;;;;;26.83;4.38;;;4.80;99.90;;;;;;5032513;28;20116;-62
2022/01/20 05:54:19;;;;;;;22.30;4.30;;;4.80;99.90;;;;;;5033789;28;20483;-62
2022/01/20 05:56:45;;;;;;;18.42;4.43;;;4.80;99.90;;;;;;5033153;28;20544;-61
2022/01/20 05:59:11;;;;;;;27.40;4.88;;;4.80;99.90;;;;;;5033980;28;20021;-62
2022/01/20 06:01:38;;;;;;;18.63;3.92;;;4.90;99.90;;;;;;5034005;28;20096;-59
2022/01/20 06:04:05;;;;;;;25.60;4.82;;;4.90;99.90;;;;;;5033966;28;20022;-62
2022/01/20 06:06:31;;;;;;;18.98;4.20;;;4.90;99.90;;;;;;5032689;28;20416;-64
2022/01/20 06:08:57;;;;;;;16.67;3.40;;;4.90;99.90;;;;;;5035052;28;20128;-61
2022/01/20 06:11:23;;;;;;;15.88;3.15;;;4.80;99.90;;;;;;5033010;28;20029;-61
2022/01/20 06:13:48;;;;;;;22.42;3.58;;;4.70;99.90;;;;;;5034001;28;20510;-62
2022/01/20 06:16:14;;;;;;;14.75;3.08;;;4.70;99.90;;;;;;5033208;28;20394;-61
2022/01/20 06:18:40;;;;;;;18.77;3.38;;;4.70;99.90;;;;;;5033126;28;20356;-61
2022/01/20 06:21:06;;;;;;;17.88;3.65;;;4.70;99.90;;;;;;5032999;28;20060;-62
2022/01/20 06:23:33;;;;;;;21.23;3.90;;;4.70;99.90;;;;;;5034730;28;20060;-62
2022/01/20 06:26:04;;;;;;;22.00;4.13;;;4.70;99.90;;;;;;5031805;28;20479;-63
2022/01/20 06:28:34;;;;;;;18.52;4.07;;;4.70;99.90;;;;;;5032838;28;20041;-62
2022/01/20 06:31:00;;;;;;;21.38;4.20;;;4.80;99.90;;;;;;5033347;28;20508;-62
2022/01/20 06:33:25;;;;;;;25.98;4.07;;;4.80;99.90;;;;;;5032576;28;20467;-62
2022/01/20 06:35:51;;;;;;;23.27;4.03;;;4.80;99.90;;;;;;5033945;28;20033;-62
2022/01/20 06:38:18;;;;;;;23.80;3.92;;;4.90;99.90;;;;;;5032316;28;20037;-61
2022/01/20 06:40:44;;;;;;;25.65;3.83;;;4.90;99.90;;;;;;5033277;28;20049;-61
2022/01/20 06:43:10;;;;;;;19.52;3.38;;;4.90;99.90;;;;;;5032988;28;20471;-61
2022/01/20 06:45:35;;;;;;;12.65;3.17;;;5.00;99.90;;;;;;5024736;28;20029;-61
2022/01/20 06:48:01;;;;;;;19.45;3.53;;;5.00;99.90;;;;;;5026364;28;20391;-60
2022/01/20 06:50:27;;;;;;;25.92;3.20;;;5.00;99.90;;;;;;5011788;28;20028;-60
2022/01/20 06:52:53;;;;;;;23.40;3.92;;;5.10;99.90;;;;;;5013558;28;20029;-60
2022/01/20 06:55:19;;;;;;;24.17;3.80;;;5.10;99.90;;;;;;5013348;28;20447;-61
2022/01/20 06:57:45;;;;;;;16.15;2.97;;;5.10;99.90;;;;;;5014350;28;20057;-63
2022/01/20 07:00:17;;;;;;;16.65;3.25;;;5.00;99.90;;;;;;5017488;28;20076;-63
2022/01/20 07:02:43;;;;;;;17.88;3.10;;;5.00;99.90;;;;;;5019285;28;20014;-63
2022/01/20 07:05:10;;;;;;;14.77;3.05;;;4.90;99.90;;;;;;5024770;28;20033;-63
2022/01/20 07:07:36;;;;;;;28.10;4.10;;;5.00;99.90;;;;;;5024438;28;20066;-63
2022/01/20 07:10:03;;;;;;;24.15;3.22;;;5.00;99.90;;;;;;5014023;28;20133;-63
2022/01/20 07:12:28;;;;;;;16.23;2.90;;;4.90;99.90;;;;;;5019390;28;20554;-62
2022/01/20 07:14:54;;;;;;;15.45;2.63;;;4.80;99.90;;;;;;5013066;28;20030;-62
2022/01/20 07:17:19;;;;;;;18.92;2.42;;;4.80;99.90;;;;;;5011827;28;20030;-61
2022/01/20 07:19:45;;;;;;;12.27;2.38;;;4.70;99.90;;;;;;5011633;28;20106;-61
2022/01/20 07:22:11;;;;;;;18.08;2.78;;;4.70;99.90;;;;;;5019521;28;20038;-61
2022/01/20 07:24:37;;;;;;;20.52;2.67;;;4.70;99.90;;;;;;5018498;28;20120;-61
2022/01/20 07:27:03;;;;;;;12.32;2.85;;;4.80;99.90;;;;;;5016762;28;20054;-60
2022/01/20 07:29:31;;;;;;;15.95;3.08;;;4.80;99.90;;;;;;5017978;28;20144;-60
2022/01/20 07:31:58;;;;;;;13.90;2.60;;;4.80;99.90;;;;;;5012761;28;20072;-60
2022/01/20 07:34:25;;;;;;;17.02;2.95;;;4.90;99.90;;;;;;5014821;28;20060;-59
2022/01/20 07:36:50;;;;;;;16.90;2.35;;;4.90;99.90;;;;;;5017112;28;20018;-59
2022/01/20 07:39:16;;;;;;;14.07;2.10;;;4.90;99.90;;;;;;5009837;28;20577;-60
2022/01/20 07:41:42;;;;;;;15.07;3.20;;;4.80;99.90;;;;;;5010191;28;20645;-60
2022/01/20 07:44:09;;;;;;;9.88;1.98;;;4.80;99.90;;;;;;5012717;28;20121;-59
2022/01/20 07:46:35;;;;;;;19.42;2.53;;;4.70;99.90;;;;;;5017373;28;20025;-59
2022/01/20 07:49:01;;;;;;;14.77;2.75;;;4.60;99.90;;;;;;5025492;28;20022;-60
2022/01/20 07:51:26;;;;;;;14.00;2.30;;;4.50;99.90;;;;;;5029464;28;20088;-60
2022/01/20 07:53:52;;;;;;;19.65;2.85;;;4.40;99.90;;;;;;5019640;28;20259;-60
2022/01/20 07:56:18;;;;;;;20.50;3.15;;;4.40;99.90;;;;;;5019177;28;20091;-60
2022/01/20 07:58:44;;;;;;;15.57;2.80;;;4.30;99.90;;;;;;5009888;28;20163;-60
2022/01/20 08:01:10;;;;;;;15.88;2.97;;;4.30;99.90;;;;;;5015734;28;20449;-60
2022/01/20 08:03:35;;;;;;;20.63;4.32;;;4.30;99.90;;;;;;5020823;28;20081;-60
2022/01/20 08:06:03;;;;;;;19.88;4.35;;;4.30;99.90;;;;;;5015272;28;20502;-59
2022/01/20 08:08:29;;;;;;;21.05;3.75;;;4.30;99.90;;;;;;5021980;28;20104;-60
2022/01/20 08:10:55;;;;;;;24.73;3.72;;;4.40;99.90;;;;;;5018364;28;20591;-59
2022/01/20 08:13:20;;;;;;;23.30;3.97;;;4.40;99.90;;;;;;5013845;28;20533;-60
2022/01/20 08:15:46;;;;;;;29.40;4.82;;;4.50;99.90;;;;;;5008833;28;20026;-59
2022/01/20 08:18:13;;;;;;;26.50;4.72;;;4.60;99.90;;;;;;5016254;28;20026;-60
2022/01/20 08:20:39;;;;;;;30.48;5.63;;;4.70;99.90;;;;;;5011277;28;20080;-60
2022/01/20 08:23:05;;;;;;;22.42;4.25;;;4.70;99.90;;;;;;5012662;28;20025;-60
2022/01/20 08:25:31;;;;;;;22.08;4.05;;;4.80;99.90;;;;;;5017166;28;20885;-60
2022/01/20 08:27:57;;;;;;;20.48;3.58;;;4.90;99.90;;;;;;5008916;28;20133;-60
2022/01/20 08:30:24;;;;;;;17.80;3.67;;;4.90;99.90;;;;;;5010585;28;20033;-60
2022/01/20 08:32:50;;;;;;;23.70;3.80;;;4.90;99.90;;;;;;5020308;28;20037;-60
2022/01/20 08:35:17;;;;;;;17.40;4.50;;;4.90;99.90;;;;;;5021694;28;20494;-60
2022/01/20 08:37:45;;;;;;;25.55;4.43;;;5.00;99.90;;;;;;5018292;28;20021;-60
2022/01/20 08:40:14;;;;;;;21.73;3.67;;;5.10;99.90;;;;;;5018262;28;20538;-60
2022/01/20 08:42:46;;;;;;;22.42;4.28;;;5.10;99.90;;;;;;5025253;28;20026;-60
2022/01/20 08:45:14;;;;;;;24.25;4.15;;;5.10;99.90;;;;;;5014085;28;20613;-60
2022/01/20 08:47:42;;;;;;;24.40;4.00;;;5.10;99.90;;;;;;5017877;28;20026;-59
2022/01/20 08:50:10;;;;;;;31.48;4.15;;;5.20;99.90;;;;;;5020058;28;20053;-60
2022/01/20 08:52:36;;;;;;;20.45;3.80;;;5.20;99.90;;;;;;5014416;28;20061;-60
2022/01/20 08:55:03;;;;;;;28.98;4.10;;;5.30;99.90;;;;;;5012757;28;20127;-60
2022/01/20 08:57:28;;;;;;;24.92;5.03;;;5.30;99.90;;;;;;5015269;28;20077;-60
2022/01/20 08:59:55;;;;;;;18.65;4.35;;;5.30;99.90;;;;;;5013420;28;20640;-60
2022/01/20 09:02:21;;;;;;;22.33;4.93;;;5.40;99.90;;;;;;5014627;28;20120;-60
2022/01/20 09:04:47;;;;;;;22.52;4.50;;;5.50;99.90;;;;;;5009378;28;20112;-60
2022/01/20 09:07:13;;;;;;;23.25;5.25;;;5.60;99.90;;;;;;5016395;28;20048;-60
2022/01/20 09:09:46;;;;;;;22.98;5.10;;;5.70;99.90;;;;;;5016968;28;20573;-60
2022/01/20 09:15:27;;;;;;;27.15;4.93;;;5.70;99.90;;;;;;5010501;28;20041;-60
2022/01/20 09:17:49;;;;;;;22.33;4.70;;;5.80;99.90;;;;;;5012577;28;20133;-59
2022/01/20 09:20:15;;;;;;;26.25;4.72;;;5.90;99.90;;;;;;5008492;28;20116;-60
2022/01/20 09:22:40;;;;;;;22.27;4.00;;;5.90;99.90;;;;;;5017602;28;20077;-60
2022/01/20 09:25:07;;;;;;;23.35;4.90;;;5.90;99.90;;;;;;5018494;28;20034;-59
2022/01/20 09:27:33;;;;;;;21.20;4.28;;;5.80;99.90;;;;;;5015279;28;20418;-60
2022/01/20 09:30:01;;;;;;;23.55;4.38;;;5.70;99.90;;;;;;5009472;28;20200;-60
2022/01/20 09:32:29;;;;;;;27.17;4.85;;;5.70;99.90;;;;;;5011973;28;20658;-60
2022/01/20 09:34:56;;;;;;;28.00;3.80;;;5.70;99.90;;;;;;5013828;28;20026;-57
2022/01/20 09:37:23;;;;;;;23.02;4.40;;;5.60;99.90;;;;;;5006429;28;20068;-56
2022/01/20 09:39:49;;;;;;;21.83;3.90;;;5.50;99.90;;;;;;5010682;28;20030;-56
2022/01/20 09:42:14;;;;;;;20.27;4.45;;;5.60;99.90;;;;;;5018092;28;20022;-57
2022/01/20 09:44:45;;;;;;;16.80;4.07;;;6.30;99.90;;;;;;5014302;28;21681;-57
2022/01/20 09:47:11;;;;;;;19.95;4.35;;;7.20;99.90;;;;;;5013733;28;20027;-57
2022/01/20 09:49:38;;;;;;;21.42;4.50;;;7.70;99.90;;;;;;5014799;28;20056;-57
2022/01/20 09:52:04;;;;;;;18.90;4.00;;;7.60;99.90;;;;;;5021223;28;20455;-57
2022/01/20 09:54:29;;;;;;;24.98;3.80;;;7.30;99.90;;;;;;5015794;28;20128;-57
2022/01/20 09:56:57;;;;;;;17.30;3.63;;;7.20;99.90;;;;;;5015997;28;20048;-57
2022/01/20 09:59:23;;;;;;;20.98;3.83;;;7.20;99.90;;;;;;5021964;28;20093;-57
2022/01/20 10:01:52;;;;;;;15.90;3.05;;;7.70;99.90;;;;;;5019059;28;20097;-57
2022/01/20 10:04:22;;;;;;;14.02;3.08;;;7.60;99.90;;;;;;5024595;28;20032;-57
2022/01/20 10:07:11;;;;;;;20.50;4.00;;;7.50;99.90;;;;;;5012528;28;20030;-57
2022/01/20 10:09:47;;;;;;;12.23;2.97;;;7.60;99.90;;;;;;5018591;28;20651;-50
2022/01/20 10:12:15;;;;;;;15.93;3.58;;;8.10;99.90;;;;;;5014094;28;20041;-51
2022/01/20 10:14:50;;;;;;;17.52;3.72;;;8.40;99.90;;;;;;5020043;28;20045;-57
2022/01/20 10:17:25;;;;;;;17.77;3.70;;;8.70;99.90;;;;;;5016285;28;20061;-59
2022/01/20 10:19:56;;;;;;;14.73;3.45;;;9.10;99.90;;;;;;5019711;28;20482;-53
2022/01/20 10:22:23;;;;;;;9.68;2.30;;;9.60;99.90;;;;;;5012547;28;20029;-48
2022/01/20 10:25:05;;;;;;;14.60;3.35;;;9.60;99.90;;;;;;5015523;28;20109;-48
2022/01/20 10:27:32;;;;;;;16.13;2.93;;;9.20;99.90;;;;;;5015907;28;20517;-47
2022/01/20 10:30:07;;;;;;;13.27;2.45;;;8.60;99.90;;;;;;5022787;28;20049;-47
2022/01/20 10:32:41;;;;;;;10.07;2.35;;;8.00;99.90;;;;;;5020098;28;20552;-48
2022/01/20 10:35:09;;;;;;;15.55;2.60;;;7.40;99.90;;;;;;5026441;28;20021;-47
2022/01/20 10:37:35;;;;;;;12.35;3.17;;;6.60;99.90;;;;;;5022789;28;20033;-47
2022/01/20 10:40:18;;;;;;;8.48;2.05;;;6.10;99.90;;;;;;5020252;28;20447;-49
2022/01/20 10:42:46;;;;;;;8.30;2.17;;;5.80;99.90;;;;;;5023882;28;20033;-48
2022/01/20 10:45:29;;;;;;;15.55;2.72;;;5.80;99.90;;;;;;5018192;28;20022;-48
2022/01/20 10:47:56;;;;;;;;;;;5.90;99.90;;;;;;5019744;28;20036;-48
2022/01/20 10:50:31;;;;;;;12.90;2.55;;;6.40;99.90;;;;;;5022932;28;19909;-48
2022/01/20 10:52:57;;;;;;;15.23;2.33;;;7.20;99.90;;;;;;5033731;28;20509;-48
2022/01/20 10:55:26;;;;;;;10.65;2.65;;;7.90;99.90;;;;;;5033802;28;20362;-48
2022/01/20 10:57:54;;;;;;;16.10;3.40;;;8.30;99.90;;;;;;5023103;28;20101;-48
2022/01/20 11:00:22;;;;;;;12.77;2.75;;;8.80;99.90;;;;;;5024334;28;20018;-48
2022/01/20 11:02:54;;;;;;;16.42;3.20;;;8.90;99.90;;;;;;5014198;28;20072;-48
2022/01/20 11:05:20;;;;;;;11.05;2.70;;;8.90;99.90;;;;;;5022811;28;20083;-48
2022/01/20 11:07:47;;;;;;;11.57;2.88;;;8.50;99.90;;;;;;5021053;28;20455;-48
2022/01/20 11:10:14;;;;;;;15.10;2.92;;;8.40;99.90;;;;;;5016583;28;20244;-48
2022/01/20 11:12:39;;;;;;;16.52;3.35;;;8.50;99.90;;;;;;5024184;28;20029;-48
2022/01/20 11:15:12;;;;;;;13.55;2.88;;;8.80;99.90;;;;;;5017925;28;20026;-48
2022/01/20 11:17:40;;;;;;;15.80;2.63;;;8.60;99.90;;;;;;5021570;28;20470;-48
2022/01/20 11:20:27;;;;;;;13.52;3.60;;;8.50;99.90;;;;;;5019965;28;20087;-48
2022/01/20 11:22:59;;;;;;;17.25;4.82;;;8.00;99.90;;;;;;5015581;28;20021;-48
2022/01/20 11:25:27;;;;;;;15.95;3.75;;;7.90;99.90;;;;;;5014959;28;20059;-48
2022/01/20 11:28:08;;;;;;;20.73;3.83;;;8.00;99.90;;;;;;5017167;28;20124;-48
2022/01/20 11:30:40;;;;;;;22.77;4.00;;;8.20;99.90;;;;;;5020434;28;20037;-47
2022/01/20 11:33:07;;;;;;;18.05;3.72;;;8.10;99.90;;;;;;5018646;28;20041;-49
2022/01/20 11:35:46;;;;;;;19.80;4.70;;;7.90;99.90;;;;;;5016402;28;20033;-49
2022/01/20 11:38:15;;;;;;;16.98;4.10;;;7.70;99.90;;;;;;5018045;28;20103;-50
2022/01/20 11:40:55;;;;;;;20.73;3.47;;;7.60;99.90;;;;;;5017398;28;20021;-50
2022/01/20 11:43:40;;;;;;;22.42;3.90;;;7.60;99.90;;;;;;5016805;28;20105;-49
2022/01/20 11:46:13;;;;;;;15.40;2.65;;;7.20;99.90;;;;;;5016780;28;20069;-49
2022/01/20 11:48:56;;;;;;;14.55;2.25;;;6.80;99.90;;;;;;5020315;28;20056;-55
2022/01/20 11:51:22;;;;;;;;;;;6.00;99.90;;;;;;5023256;28;20022;-54
2022/01/20 11:54:02;;;;;;;9.25;2.63;;;5.40;99.90;;;;;;5017116;28;19917;-53
2022/01/20 11:56:40;;;;;;;18.67;3.20;;;5.10;99.90;;;;;;5016899;28;20447;-51
2022/01/20 11:59:08;;;;;;;13.98;3.45;;;5.00;99.90;;;;;;5023975;28;20018;-50
2022/01/20 12:01:52;;;;;;;13.75;3.45;;;5.20;99.90;;;;;;5022431;28;20087;-50
2022/01/20 12:04:29;;;;;;;16.50;4.25;;;5.30;99.90;;;;;;5022208;28;20026;-50
2022/01/20 12:06:55;;;;;;;17.63;4.85;;;5.50;99.90;;;;;;5021325;28;20021;-49
2022/01/20 12:09:35;;;;;;;18.75;5.82;;;5.50;99.90;;;;;;5018510;28;20033;-50
2022/01/20 12:12:03;;;;;;;17.40;4.90;;;5.50;99.90;;;;;;5011740;28;20040;-49
2022/01/20 12:14:36;;;;;;;18.70;4.97;;;5.60;99.90;;;;;;5017516;28;20026;-48
2022/01/20 12:17:11;;;;;;;12.85;2.92;;;5.90;99.90;;;;;;5013516;28;20072;-49
2022/01/20 12:19:38;;;;;;;8.70;2.65;;;6.60;99.90;;;;;;5017054;28;20038;-48
2022/01/20 12:22:05;;;;;;;10.95;2.70;;;7.00;99.90;;;;;;5030628;28;20033;-50
2022/01/20 12:24:34;;;;;;;18.40;3.92;;;7.00;99.90;;;;;;5019948;28;20485;-49
2022/01/20 12:27:00;;;;;;;12.98;3.33;;;7.00;99.90;;;;;;5020802;28;20099;-48
2022/01/20 12:29:37;;;;;;;10.48;2.40;;;7.80;99.90;;;;;;5028366;28;20049;-48
2022/01/20 12:32:26;;;;;;;8.30;2.67;;;8.60;99.90;;;;;;5026730;28;20104;-49
2022/01/20 12:35:00;;;;;;;9.77;3.35;;;9.30;99.90;;;;;;5017779;28;20486;-48
2022/01/20 12:37:37;;;;;;;12.07;3.22;;;10.20;99.90;;;;;;5028877;28;20044;-48
2022/01/20 12:40:05;;;;;;;13.60;2.83;;;10.50;99.90;;;;;;5026449;28;20399;-49
2022/01/20 12:42:36;;;;;;;10.25;2.85;;;10.80;99.90;;;;;;5025961;28;20156;-49
2022/01/20 12:47:51;;;;;;;9.50;2.55;;;11.10;99.90;;;;;;4981724;28;20708;-48
2022/01/20 12:50:17;;;;;;;8.20;3.00;;;11.10;99.90;;;;;;5029142;28;20075;-49
2022/01/20 12:52:50;;;;;;;9.43;2.70;;;11.20;99.90;;;;;;5016478;28;20077;-48
2022/01/20 12:55:17;;;;;;;7.88;2.80;;;11.30;99.90;;;;;;5025957;28;20025;-49
2022/01/20 12:57:43;;;;;;;9.07;2.30;;;11.40;99.90;;;;;;5018274;28;20018;-49
2022/01/20 13:00:10;;;;;;;9.25;2.60;;;11.90;99.90;;;;;;5024492;28;20086;-49
2022/01/20 13:02:36;;;;;;;6.28;2.50;;;11.70;99.90;;;;;;5017096;28;20038;-49
2022/01/20 13:05:05;;;;;;;5.93;2.05;;;12.00;99.90;;;;;;5014540;28;20033;-49
2022/01/20 13:07:34;;;;;;;7.53;2.08;;;12.00;99.90;;;;;;5011732;28;20238;-49
2022/01/20 13:10:08;;;;;;;8.73;1.90;;;11.70;99.90;;;;;;5016259;28;20071;-49
2022/01/20 13:12:38;;;;;;;8.05;2.00;;;11.40;99.90;;;;;;5012462;28;20026;-49
2022/01/20 13:15:26;;;;;;;14.48;2.30;;;11.30;99.90;;;;;;5014306;28;20029;-49
2022/01/20 13:18:07;;;;;;;10.38;1.95;;;11.30;99.90;;;;;;5012447;28;20156;-49
2022/01/20 13:20:32;;;;;;;7.28;2.22;;;11.40;99.90;;;;;;5010909;28;20124;-49
2022/01/20 13:23:54;;;;;;;6.90;2.17;;;11.30;99.90;;;;;;5014219;28;20471;-49
2022/01/20 13:26:07;;;;;;;5.88;1.65;;;11.30;99.90;;;;;;5039485;28;20524;-49
2022/01/20 13:28:32;;;;;;;6.95;1.77;;;11.20;99.90;;;;;;5024734;28;20049;-50
2022/01/20 13:31:11;;;;;;;7.13;1.48;;;11.10;99.90;;;;;;5018643;28;20735;-49
2022/01/20 13:33:39;;;;;;;5.70;1.52;;;10.90;99.90;;;;;;5016960;28;20038;-49
2022/01/20 13:36:04;;;;;;;9.95;1.80;;;10.90;99.90;;;;;;5022387;28;20026;-49
2022/01/20 13:38:34;;;;;;;9.13;2.40;;;10.80;99.90;;;;;;5023215;28;20034;-49
2022/01/20 13:41:08;;;;;;;7.40;1.70;;;10.80;99.90;;;;;;5021361;28;20021;-49
2022/01/20 13:46:38;;;;;;;8.57;1.88;;;9.30;99.90;;;;;;5012832;28;20213;-49
2022/01/20 13:49:11;;;;;;;9.77;2.30;;;8.80;99.90;;;;;;5022406;28;20400;-49
2022/01/20 13:51:37;;;;;;;10.98;2.72;;;8.40;99.90;;;;;;5017506;28;20034;-49
2022/01/20 13:54:03;;;;;;;12.60;4.47;;;8.30;99.90;;;;;;5019764;28;20335;-49
2022/01/20 13:56:30;;;;;;;12.57;2.75;;;8.30;99.90;;;;;;5019440;28;20065;-47
2022/01/20 13:59:10;;;;;;;11.57;2.08;;;8.50;99.90;;;;;;5017259;28;20553;-47
2022/01/20 14:01:36;;;;;;;15.25;2.72;;;8.60;99.90;;;;;;5022554;28;20467;-46
2022/01/20 14:04:02;;;;;;;18.45;2.83;;;8.50;99.90;;;;;;5017046;28;20480;-47
2022/01/20 14:06:28;;;;;;;13.68;2.50;;;8.50;99.90;;;;;;5015589;28;20030;-47
2022/01/20 14:08:54;;;;;;;17.70;3.40;;;8.20;99.90;;;;;;5015357;28;20148;-48